メインページ
METAR-TAF:

METAR-TAF

空港 :

アネイチュム島, バヌアツ

緯度: 20-14-57S, 経度: 169-46-17E, 海抜: 2m

現時点の気象観測

当レポートは2時間4分前の06:00(UTC)に作成
無風
気温 27°C
湿度 94%
気圧 1010 hPa
視程10km以上
高度2000ftの雲は散在している
高度30000ftの千切れ雲あり

METAR: NVVA 190600Z 00000KT 9999 SCT020 BKN300 27/26 Q1010

時間: 19:04 (08:04 UTC)

予報

予報は19日の 04時(UTC)から 20日の 06時(UTC)まで有効
の風 12kt
視程: 8000m
高度2000ftの雲は散在している
高度1800ftの千切れ雲あり
にわか雨
19日の 07時(UTC)から 19日の 09時(UTC)まで徐々に
の風 5kt

TAF: NVVA 190430 1906/2006 09012KT 9999 SCT020 INTER 1906/1912 8000 SHRA BKN018 BECMG 1907/1909 09005KT

4,000以上の空港の気象観測と天気予報(METAR報とTAF報)

利用可能な観測所は地図上に黄色い丸と赤い丸で示す。

丸の上にカーソルを重ねると観測所名を参照できる。

次にクリックすると気象観測と天気予報を参照できる。

マップの切り替え:黒色「×」印の緑ボタンをクリックして拡大、「-」印の緑ボタンをクリックして縮小、緑色の三角印をクリックして隣りの地図に切り替え


METAR-TAF: